KPOB/POB METAR and TAF weather

Enter ICAO airport designator
Station Type Date Time Source
KPOB METAR 2022/12/04 11:31 UTC NOAA

KPOB 041131Z AUTO 00000KT 10SM BKN060 07/05 A3025 RMK AO2 SLP247 $


Station Type Date Time Source
KPOB Decoded METAR 2022/12/04 11:31 UTC NOAA

Pope Air Force Base, NC, United States (KPOB) 35-10N 079-02W 61M
Dec 04, 2022 - 06:31 AM EST / 2022.12.04 1131 UTC
Wind: Calm:0
Visibility: 10 mile(s):0
Sky conditions: mostly cloudy
Temperature: 44 F (7 C)
Dew Point: 41 F (5 C)
Relative Humidity: 87%
Pressure (altimeter): 30.25 in. Hg (1024 hPa)
ob: KPOB 041131Z AUTO 00000KT 10SM BKN060 07/05 A3025 RMK AO2 SLP247
cycle: 11

Station Type Date Time Source
KPOB TAF 2022/12/02 18:12 UTC NOAA

TAF KPOB 021800Z 0218/0324 15005KT 9999 BKN030 BKN120 QNH3042INS
BECMG 0304/0305 18004KT 9999 SCT020 BKN030 BKN120 BKN200 QNH3036INS
BECMG 0310/0311 22006KT 9000 BR VCSH SCT015 BKN025 OVC110 QNH3030INS
BECMG 0315/0316 24012G18KT 8000 -SHRA BR FEW010 BKN015 BKN025 OVC090 QNH3022INS
BECMG 0320/0321 25009KT 9000 -SHRA BR SCT010 BKN015 OVC030 QNH3020INS TX15/0220Z TN09/0311Z LAST NO
AMDS AFT 0223 NEXT 0518

Example: see airport list